Terminal Aerodrome Forecast
Issued by NWS

Home | Current Version | Previous Version | Text Only | Print | Product List | Glossary On
Versions: 1 2 3 4 5 6 7 8 9 10 11 12 13 14 15 16 17 18 19 20 21 22 23 24 25 26 27
000
FTUS45 KBOU 212010 AAD
TAFBJC
TAF AMD
KBJC 212010Z 2120/2218 35020G30KT P6SM VCSH SCT025 BKN040 OVC060
      TEMPO 2121/2123 -SHRA BKN025
     FM212300 02013G22KT P6SM VCSH SCT015 OVC030
      TEMPO 2123/2202 -SHRA BKN015
     FM220200 07011KT P6SM VCSH SCT012 OVC030
     FM220600 16005KT P6SM BKN012 OVC035
     FM220800 15005KT P6SM BKN008 OVC020=

USA.gov is the U.S. government's official web portal to all federal, state and local government web resources and services.